Time;durP1;ratioP1;P1;durP2;ratioP2;P2;SDS_P1;SDS_P2;PMS_P1;PMS_P2;Temp;Humidity;BMP_temperature;BMP_pressure;BME280_temperature;BME280_humidity;BME280_pressure;Samples;Min_cycle;Max_cycle;Signal;HPM_P1;HPM_P2
2022/07/28 00:02:02;;;;;;;65.50;18.27;;;;;;;18.53;77.52;99100.88;4955032;29;20039;-74
2022/07/28 00:04:28;;;;;;;45.38;16.23;;;;;;;18.40;77.91;99104.19;4939394;29;20047;-74
2022/07/28 00:06:54;;;;;;;37.83;14.27;;;;;;;18.30;78.28;99106.28;4955368;29;20050;-74
2022/07/28 00:09:20;;;;;;;28.45;13.98;;;;;;;18.10;79.36;99112.13;4955088;29;20047;-74
2022/07/28 00:11:45;;;;;;;40.72;18.83;;;;;;;17.96;79.29;99104.75;4955017;29;20042;-74
2022/07/28 00:14:11;;;;;;;50.40;19.33;;;;;;;18.05;79.12;99119.09;4955312;29;20495;-73
2022/07/28 00:16:37;;;;;;;49.03;19.88;;;;;;;17.93;79.23;99122.19;4955276;29;20058;-74
2022/07/28 00:19:03;;;;;;;46.38;23.13;;;;;;;17.69;80.19;99114.97;4971055;28;20047;-74
2022/07/28 00:21:29;;;;;;;53.00;25.25;;;;;;;17.34;80.48;99112.69;4970720;28;20055;-73
2022/07/28 00:23:54;;;;;;;53.50;26.25;;;;;;;17.22;80.63;99120.31;4954840;29;20039;-73
2022/07/28 00:26:22;;;;;;;47.72;25.95;;;;;;;17.19;80.75;99124.22;4954646;29;20520;-74
2022/07/28 00:28:48;;;;;;;49.85;25.67;;;;;;;17.12;81.20;99134.00;4970935;28;20046;-74
2022/07/28 00:31:14;;;;;;;65.25;24.48;;;;;;;17.11;81.38;99131.44;4954952;29;20089;-73
2022/07/28 00:33:40;;;;;;;50.78;26.70;;;;;;;17.15;80.98;99128.28;4938695;29;20145;-74
2022/07/28 00:36:08;;;;;;;64.97;32.63;;;;;;;17.07;81.22;99135.50;4938442;29;20487;-74
2022/07/28 00:38:35;;;;;;;60.22;30.02;;;;;;;17.04;81.43;99131.31;4954306;29;20078;-74
2022/07/28 00:41:10;;;;;;;62.03;30.10;;;;;;;17.02;80.90;99124.38;4954128;29;20053;-75
2022/07/28 00:43:42;;;;;;;74.47;34.83;;;;;;;17.12;80.37;99130.47;4922671;29;20395;-74
2022/07/28 00:46:08;;;;;;;111.95;50.92;;;;;;;17.15;80.53;99143.59;4954551;29;20071;-74
2022/07/28 00:48:39;;;;;;;109.15;53.35;;;;;;;17.19;80.04;99139.56;4954517;29;20079;-74
2022/07/28 00:51:07;;;;;;;115.25;56.70;;;;;;;17.26;79.82;99135.16;4955500;28;20049;-73
2022/07/28 00:53:33;;;;;;;147.80;70.30;;;;;;;17.36;79.78;99145.78;4955325;28;20051;-73
2022/07/28 00:55:59;;;;;;;145.63;69.13;;;;;;;17.37;79.56;99137.50;4954102;29;20043;-73
2022/07/28 00:58:26;;;;;;;160.35;68.43;;;;;;;17.36;79.11;99148.50;4953504;28;20512;-73
2022/07/28 01:00:53;;;;;;;140.93;65.15;;;;;;;17.30;78.44;99141.06;4954052;29;20043;-74
2022/07/28 01:03:19;;;;;;;154.82;67.55;;;;;;;17.33;78.72;99143.44;4954138;29;20047;-74
2022/07/28 01:06:03;;;;;;;154.68;65.90;;;;;;;17.34;78.71;99145.97;4953969;29;20047;-74
2022/07/28 01:08:55;;;;;;;131.63;58.05;;;;;;;17.35;78.18;99154.91;4953873;29;20102;-74
2022/07/28 01:11:41;;;;;;;113.05;51.00;;;;;;;17.44;78.01;99143.06;4938055;29;20136;-73
2022/07/28 01:14:14;;;;;;;94.60;44.80;;;;;;;17.56;77.96;99149.78;4955004;28;20062;-73
2022/07/28 01:16:52;;;;;;;99.75;45.33;;;;;;;17.65;77.40;99147.94;4937809;29;20051;-74
2022/07/28 01:19:36;;;;;;;93.13;45.10;;;;;;;17.67;77.26;99146.72;4955175;28;20050;-73
2022/07/28 01:22:04;;;;;;;87.70;42.70;;;;;;;17.70;76.68;99149.09;4954946;28;20079;-73
2022/07/28 01:24:40;;;;;;;79.87;38.13;;;;;;;17.67;76.90;99149.44;4969691;28;20110;-73
2022/07/28 01:27:16;;;;;;;65.72;33.40;;;;;;;17.73;77.05;99148.75;4953499;29;20038;-73
2022/07/28 01:30:20;;;;;;;54.60;30.77;;;;;;;17.69;76.52;99136.59;4921683;29;20117;-73
2022/07/28 01:32:55;;;;;;;58.67;29.00;;;;;;;17.69;76.28;99147.41;4948084;29;20167;-73
2022/07/28 01:35:25;;;;;;;53.55;29.58;;;;;;;17.58;76.31;99149.63;4953530;29;20042;-74
2022/07/28 01:37:57;;;;;;;54.70;28.70;;;;;;;17.66;76.51;99157.72;4953862;29;20047;-74
2022/07/28 01:40:26;;;;;;;40.20;22.88;;;;;;;17.77;76.02;99159.25;4954883;28;20090;-74
2022/07/28 01:42:56;;;;;;;41.80;23.52;;;;;;;17.78;76.08;99144.72;4953625;29;20051;-74
2022/07/28 01:45:22;;;;;;;42.17;23.23;;;;;;;17.83;75.99;99142.34;4954626;29;20062;-74
2022/07/28 01:47:50;;;;;;;38.45;22.63;;;;;;;18.00;75.53;99154.78;4937396;29;20069;-75
2022/07/28 01:50:19;;;;;;;37.92;21.38;;;;;;;18.04;75.70;99150.69;4954644;28;20055;-74
2022/07/28 01:52:46;;;;;;;31.60;20.88;;;;;;;18.18;75.25;99144.56;4953607;29;20167;-74
2022/07/28 01:55:13;;;;;;;34.80;21.10;;;;;;;18.36;74.64;99157.00;4921513;29;20058;-74
2022/07/28 01:57:41;;;;;;;31.55;21.30;;;;;;;18.38;74.54;99150.38;4953322;29;20411;-74
2022/07/28 02:00:12;;;;;;;41.92;22.10;;;;;;;18.41;74.73;99135.66;4952955;29;20483;-75
2022/07/28 02:02:41;;;;;;;36.15;21.83;;;;;;;18.43;74.56;99163.38;4937504;29;20047;-74
2022/07/28 02:05:11;;;;;;;25.55;15.90;;;;;;;18.35;74.59;99164.25;4952889;29;20043;-74
2022/07/28 02:07:40;;;;;;;20.08;12.95;;;;;;;18.43;74.83;99156.09;4921441;29;20055;-74
2022/07/28 02:10:08;;;;;;;16.70;11.15;;;;;;;18.59;74.50;99162.44;4937232;29;20051;-74
2022/07/28 02:12:36;;;;;;;24.95;13.60;;;;;;;18.66;74.36;99164.25;4940990;29;20259;-74
2022/07/28 02:15:26;;;;;;;17.35;12.95;;;;;;;18.74;74.50;99162.56;4957407;29;20047;-75
2022/07/28 02:17:54;;;;;;;25.30;12.15;;;;;;;18.88;74.21;99153.63;4957152;29;20047;-74
2022/07/28 02:20:21;;;;;;;22.85;12.52;;;;;;;19.07;73.55;99158.59;4940849;29;20047;-74
2022/07/28 02:22:49;;;;;;;17.70;10.18;;;;;;;19.25;73.51;99154.69;4940993;29;20057;-74
2022/07/28 02:25:15;;;;;;;14.13;9.45;;;;;;;19.40;73.28;99171.81;4972788;28;20047;-74
2022/07/28 02:27:52;;;;;;;13.75;10.50;;;;;;;19.44;72.75;99159.59;4941116;29;20043;-74
2022/07/28 02:30:36;;;;;;;26.25;10.20;;;;;;;19.61;72.70;99173.84;4924548;29;20573;-74
2022/07/28 02:33:15;;;;;;;22.63;11.10;;;;;;;19.68;72.24;99176.69;4956688;29;20043;-74
2022/07/28 02:35:46;;;;;;;;;;;;;;;19.76;72.09;99169.31;4956850;29;20076;-74
2022/07/28 02:38:19;;;;;;;20.02;11.05;;;;;;;19.79;71.81;99162.69;4940618;29;19929;-74
2022/07/28 02:40:48;;;;;;;21.45;11.20;;;;;;;20.03;71.17;99169.69;4972592;28;20054;-74
2022/07/28 02:43:19;;;;;;;29.02;13.65;;;;;;;20.16;70.74;99160.88;4940379;29;20035;-74
2022/07/28 02:45:50;;;;;;;29.13;15.30;;;;;;;20.32;70.36;99168.81;4956396;29;20039;-74
2022/07/28 02:48:20;;;;;;;24.52;17.35;;;;;;;20.45;70.35;99168.13;4956331;29;20055;-74
2022/07/28 02:50:47;;;;;;;27.90;15.88;;;;;;;20.75;70.29;99185.22;4957698;28;20116;-74
2022/07/28 02:53:15;;;;;;;31.85;17.45;;;;;;;20.85;69.37;99191.19;4956538;29;20102;-75
2022/07/28 02:55:46;;;;;;;30.05;16.65;;;;;;;20.80;69.16;99190.94;4940274;29;20550;-74
2022/07/28 02:58:14;;;;;;;31.40;16.92;;;;;;;20.84;68.72;99178.66;4956058;29;20097;-74
2022/07/28 03:00:40;;;;;;;39.15;16.55;;;;;;;21.00;68.77;99199.28;4972289;28;20050;-74
2022/07/28 03:03:07;;;;;;;27.98;14.45;;;;;;;21.20;68.49;99199.47;4940641;29;20043;-74
2022/07/28 03:05:33;;;;;;;43.33;17.25;;;;;;;21.25;68.17;99197.88;4940133;29;20051;-74
2022/07/28 03:07:59;;;;;;;30.75;15.55;;;;;;;21.28;68.41;99183.03;4939963;29;20043;-74
2022/07/28 03:10:26;;;;;;;34.30;15.00;;;;;;;21.42;68.06;99182.13;4955857;29;20486;-74
2022/07/28 03:12:57;;;;;;;24.42;13.60;;;;;;;21.60;67.17;99178.09;4957271;29;20073;-73
2022/07/28 03:15:23;;;;;;;30.50;14.05;;;;;;;21.81;67.02;99189.78;4955929;29;20047;-73
2022/07/28 03:17:50;;;;;;;26.45;11.77;;;;;;;21.99;65.99;99199.28;4939846;29;20054;-74
2022/07/28 03:20:16;;;;;;;30.23;12.10;;;;;;;22.11;65.94;99186.78;4957087;28;20400;-75
2022/07/28 03:22:41;;;;;;;15.13;9.68;;;;;;;22.20;65.03;99179.34;4956398;28;20059;-75
2022/07/28 03:25:15;;;;;;;14.13;10.18;;;;;;;22.26;64.97;99189.41;4955527;29;20443;-73
2022/07/28 03:27:45;;;;;;;18.55;10.32;;;;;;;22.29;64.85;99191.75;4955350;29;20043;-74
2022/07/28 03:30:18;;;;;;;22.27;10.50;;;;;;;22.16;64.97;99183.53;4923274;29;20054;-74
2022/07/28 03:32:51;;;;;;;21.60;9.88;;;;;;;22.21;64.59;99197.34;4971870;28;20054;-74
2022/07/28 03:35:17;;;;;;;25.63;9.50;;;;;;;22.12;65.02;99179.50;4939634;29;20503;-74
2022/07/28 03:37:54;;;;;;;12.27;8.30;;;;;;;22.17;64.74;99186.03;4971451;28;20062;-74
2022/07/28 03:40:25;;;;;;;17.55;8.38;;;;;;;22.23;64.63;99178.94;4939159;29;20043;-74
2022/07/28 03:42:52;;;;;;;15.32;8.40;;;;;;;22.31;64.37;99178.78;4923329;29;20175;-74
2022/07/28 03:45:19;;;;;;;16.60;8.52;;;;;;;22.42;64.06;99182.81;4923108;29;20078;-74
2022/07/28 03:47:54;;;;;;;13.65;8.18;;;;;;;22.52;63.99;99191.41;4971069;28;20479;-75
2022/07/28 03:50:28;;;;;;;12.50;8.27;;;;;;;22.52;63.90;99178.63;4955366;29;20043;-74
2022/07/28 03:52:55;;;;;;;14.43;8.48;;;;;;;22.66;63.70;99197.75;4955110;29;20054;-73
2022/07/28 03:55:22;;;;;;;16.23;8.60;;;;;;;22.76;63.29;99198.22;4938941;29;20055;-74
2022/07/28 03:57:48;;;;;;;13.15;8.18;;;;;;;22.88;63.27;99202.03;4938886;29;20058;-75
2022/07/28 04:00:15;;;;;;;16.10;8.68;;;;;;;22.89;62.78;99195.53;4970925;28;20529;-74
2022/07/28 04:02:42;;;;;;;16.50;8.85;;;;;;;23.06;62.55;99203.38;4956078;28;20055;-73
2022/07/28 04:05:13;;;;;;;22.63;8.23;;;;;;;23.13;62.43;99196.00;4938728;29;20059;-75
2022/07/28 04:07:40;;;;;;;13.90;8.73;;;;;;;23.19;62.34;99203.38;4938483;28;20066;-78
2022/07/28 04:10:08;;;;;;;24.95;8.20;;;;;;;23.18;61.92;99202.53;4975184;28;20097;-80
2022/07/28 04:12:50;;;;;;;14.98;7.78;;;;;;;23.19;61.56;99196.03;4974273;28;20038;-78
2022/07/28 04:15:18;;;;;;;10.73;7.65;;;;;;;23.18;61.96;99196.25;4973945;28;20540;-77
2022/07/28 04:17:44;;;;;;;12.35;7.93;;;;;;;23.21;61.42;99195.84;4973918;28;20043;-79
2022/07/28 04:20:11;;;;;;;13.85;7.75;;;;;;;23.27;61.14;99195.81;4957925;28;20093;-83
2022/07/28 04:22:37;;;;;;;10.00;8.35;;;;;;;23.32;60.58;99203.41;4973665;28;20061;-77
2022/07/28 04:25:03;;;;;;;14.70;7.97;;;;;;;23.24;60.09;99203.56;4973404;28;20445;-79
2022/07/28 04:27:29;;;;;;;11.98;7.80;;;;;;;23.31;60.63;99198.97;4973788;28;20109;-77
2022/07/28 04:29:55;;;;;;;14.05;10.10;;;;;;;23.29;60.72;99201.09;4974932;28;20059;-79
2022/07/28 04:32:21;;;;;;;21.55;10.80;;;;;;;23.26;61.42;99194.16;4973347;28;20078;-79
2022/07/28 04:34:48;;;;;;;18.48;10.63;;;;;;;23.35;61.52;99194.78;4972692;28;20050;-78
2022/07/28 04:37:14;;;;;;;16.00;10.35;;;;;;;23.37;61.46;99200.88;4973444;28;20042;-77
2022/07/28 04:39:40;;;;;;;22.60;10.00;;;;;;;23.34;61.69;99197.72;4957445;28;20038;-78
2022/07/28 04:42:06;;;;;;;12.07;8.43;;;;;;;23.40;61.65;99195.00;4989373;28;20229;-77
2022/07/28 04:44:34;;;;;;;10.20;6.90;;;;;;;23.50;61.11;99200.03;4974429;28;20039;-78
2022/07/28 04:47:00;;;;;;;12.13;6.95;;;;;;;23.60;60.79;99192.28;4972922;28;20042;-78
2022/07/28 04:49:25;;;;;;;8.52;6.53;;;;;;;23.73;60.04;99211.41;4973283;28;20050;-78
2022/07/28 04:51:51;;;;;;;7.28;6.35;;;;;;;23.79;59.83;99207.00;4972005;28;20576;-78
2022/07/28 04:54:17;;;;;;;8.65;6.88;;;;;;;23.85;59.78;99211.59;4941339;28;20043;-78
2022/07/28 04:56:44;;;;;;;7.28;5.80;;;;;;;23.71;60.04;99204.47;4973287;28;20053;-78
2022/07/28 04:59:10;;;;;;;10.35;6.38;;;;;;;23.80;59.56;99211.38;4957068;28;20046;-79
2022/07/28 05:01:37;;;;;;;8.82;6.80;;;;;;;23.88;59.19;99205.72;4974145;28;20050;-86
2022/07/28 05:04:06;;;;;;;8.30;6.30;;;;;;;24.11;59.51;99209.84;4973281;28;20129;-81
2022/07/28 05:06:34;;;;;;;7.88;6.60;;;;;;;24.32;58.87;99212.34;4972858;28;20046;-78
2022/07/28 05:09:00;;;;;;;11.27;7.00;;;;;;;24.18;59.24;99213.41;4973143;28;20454;-76
2022/07/28 05:11:29;;;;;;;7.57;6.72;;;;;;;24.00;58.72;99211.38;4989192;28;20043;-78
2022/07/28 05:13:54;;;;;;;;;;;;;;;24.16;58.91;99210.06;4973574;28;20478;-76
2022/07/28 05:16:20;;;;;;;7.45;6.57;;;;;;;24.34;58.86;99209.41;4972884;28;19972;-82
2022/07/28 05:18:46;;;;;;;11.80;6.70;;;;;;;24.34;58.02;99207.50;4956479;28;20046;-81
2022/07/28 05:21:12;;;;;;;7.40;6.47;;;;;;;24.23;57.91;99208.16;4988814;28;20085;-78
2022/07/28 05:23:38;;;;;;;6.85;6.25;;;;;;;24.33;58.75;99215.91;4988679;28;20097;-76
2022/07/28 05:26:05;;;;;;;9.35;6.28;;;;;;;24.46;57.22;99208.53;4988880;28;20043;-78
2022/07/28 05:28:32;;;;;;;6.57;5.90;;;;;;;24.87;56.90;99220.13;4972796;28;20043;-79
2022/07/28 05:30:58;;;;;;;13.65;6.53;;;;;;;25.12;55.48;99204.66;4973118;28;20305;-77
2022/07/28 05:33:24;;;;;;;10.23;7.88;;;;;;;25.22;54.61;99212.38;4956664;28;20142;-80
2022/07/28 05:35:58;;;;;;;11.00;7.00;;;;;;;25.29;54.28;99213.16;4973674;28;20051;-78
2022/07/28 05:38:25;;;;;;;9.32;7.90;;;;;;;25.25;54.53;99213.84;4957460;28;20406;-78
2022/07/28 05:40:51;;;;;;;9.57;8.57;;;;;;;25.23;54.28;99208.56;4973353;28;20197;-77
2022/07/28 05:43:22;;;;;;;11.95;8.98;;;;;;;25.36;54.75;99208.50;4972146;28;20105;-80
2022/07/28 05:45:51;;;;;;;13.10;9.23;;;;;;;25.43;55.26;99220.22;4991528;28;20043;-77
2022/07/28 05:48:20;;;;;;;12.13;9.70;;;;;;;25.65;54.47;99212.47;4976153;28;20046;-78
2022/07/28 05:50:50;;;;;;;11.20;10.00;;;;;;;25.75;53.74;99211.13;4974321;28;20058;-78
2022/07/28 05:53:16;;;;;;;14.68;10.30;;;;;;;25.43;54.24;99198.34;4960513;28;20042;-78
2022/07/28 05:55:43;;;;;;;14.40;10.50;;;;;;;26.05;54.40;99205.81;4977485;28;20070;-78
2022/07/28 05:58:08;;;;;;;14.38;9.98;;;;;;;26.67;52.69;99198.38;4976559;28;20054;-78
2022/07/28 06:00:34;;;;;;;12.80;9.88;;;;;;;27.02;50.40;99211.41;4978225;28;20042;-77
2022/07/28 06:03:01;;;;;;;11.23;9.55;;;;;;;27.44;50.74;99214.19;4976896;28;20038;-78
2022/07/28 06:05:29;;;;;;;10.98;9.85;;;;;;;27.30;49.31;99214.38;4970798;28;20039;-78
2022/07/28 06:07:56;;;;;;;9.95;9.05;;;;;;;27.02;48.98;99211.41;4960136;28;20086;-81
2022/07/28 06:10:25;;;;;;;10.77;9.57;;;;;;;26.95;49.63;99216.13;4975935;28;20405;-77
2022/07/28 06:12:55;;;;;;;10.30;9.32;;;;;;;26.94;50.09;99215.31;4976138;28;20133;-77
2022/07/28 06:15:25;;;;;;;10.75;9.65;;;;;;;27.05;49.74;99219.19;4976503;28;20042;-82
2022/07/28 06:17:54;;;;;;;11.95;9.43;;;;;;;27.15;49.22;99218.63;4975843;28;20089;-79
2022/07/28 06:20:24;;;;;;;9.40;8.50;;;;;;;27.10;48.71;99208.31;4972881;28;20051;-79
2022/07/28 06:22:54;;;;;;;10.13;9.10;;;;;;;27.13;48.92;99207.91;4975057;28;20058;-78
2022/07/28 06:25:26;;;;;;;12.27;10.35;;;;;;;26.99;48.65;99201.72;4976971;28;20073;-78
2022/07/28 06:27:54;;;;;;;12.63;10.80;;;;;;;27.25;49.00;99210.66;4977248;28;20113;-80
2022/07/28 06:30:21;;;;;;;10.18;8.57;;;;;;;26.97;48.63;99197.53;4991872;28;20054;-77
2022/07/28 06:32:48;;;;;;;9.13;8.30;;;;;;;26.55;48.80;99201.03;4977028;28;20441;-81
2022/07/28 06:35:15;;;;;;;9.57;8.02;;;;;;;26.31;49.06;99201.94;4990736;28;20461;-78
2022/07/28 06:37:45;;;;;;;17.48;14.85;;;;;;;26.28;50.53;99205.97;4976909;28;20046;-78
2022/07/28 06:40:12;;;;;;;16.52;14.90;;;;;;;25.98;50.72;99199.56;4992575;28;20117;-77
2022/07/28 06:42:40;;;;;;;20.58;18.20;;;;;;;25.75;52.19;99198.25;4976935;28;20057;-78
2022/07/28 06:45:06;;;;;;;24.08;21.55;;;;;;;25.64;53.09;99199.00;4976959;28;20047;-79
2022/07/28 06:47:33;;;;;;;22.20;19.90;;;;;;;26.00;53.02;99191.97;4960290;28;20157;-78
2022/07/28 06:49:59;;;;;;;24.58;22.10;;;;;;;26.25;52.75;99200.94;4975249;28;20050;-78
2022/07/28 06:52:26;;;;;;;24.95;22.33;;;;;;;26.58;51.69;99206.06;4975594;28;20470;-79
2022/07/28 06:54:55;;;;;;;25.73;23.42;;;;;;;26.86;50.82;99189.03;4975840;28;20065;-78
2022/07/28 06:57:21;;;;;;;24.63;22.30;;;;;;;27.20;50.19;99189.44;4958760;28;20388;-80
2022/07/28 06:59:48;;;;;;;26.20;23.42;;;;;;;27.47;49.65;99195.31;4971601;28;20541;-78
2022/07/28 07:02:15;;;;;;;24.10;21.90;;;;;;;27.85;47.70;99199.56;4958493;28;20043;-78
2022/07/28 07:04:41;;;;;;;20.48;18.48;;;;;;;28.15;47.55;99204.94;4974904;28;20058;-77
2022/07/28 07:07:08;;;;;;;19.30;17.48;;;;;;;28.62;46.36;99190.28;4959177;28;20057;-77
2022/07/28 07:09:34;;;;;;;19.05;17.25;;;;;;;28.82;45.13;99206.38;4959412;28;20133;-78
2022/07/28 07:12:00;;;;;;;19.70;17.50;;;;;;;28.60;45.19;99179.53;4975333;28;20249;-79
2022/07/28 07:14:26;;;;;;;22.38;17.92;;;;;;;28.76;45.85;99192.50;4975179;28;20075;-79
2022/07/28 07:16:52;;;;;;;21.10;18.80;;;;;;;29.10;44.91;99192.63;4975122;28;20097;-77
2022/07/28 07:19:19;;;;;;;25.30;20.05;;;;;;;29.43;44.93;99193.75;4990983;28;20537;-78
2022/07/28 07:21:49;;;;;;;20.33;18.17;;;;;;;29.75;43.92;99192.13;4974170;28;20047;-78
2022/07/28 07:24:15;;;;;;;18.15;16.55;;;;;;;30.08;43.07;99198.66;4974780;28;20082;-79
2022/07/28 07:26:41;;;;;;;19.92;16.33;;;;;;;29.74;42.72;99195.13;4974765;28;20046;-78
2022/07/28 07:29:07;;;;;;;18.50;16.73;;;;;;;29.97;42.99;99196.84;4975215;28;20054;-78
2022/07/28 07:31:35;;;;;;;21.00;17.33;;;;;;;29.71;43.14;99192.84;4973961;28;20129;-78
2022/07/28 07:34:02;;;;;;;19.08;17.15;;;;;;;29.37;43.97;99194.75;4974522;28;20050;-78
2022/07/28 07:36:28;;;;;;;19.42;17.38;;;;;;;29.12;44.00;99193.22;4976034;28;20047;-78
2022/07/28 07:38:54;;;;;;;18.27;16.65;;;;;;;29.16;44.02;99194.41;4974651;28;20066;-78
2022/07/28 07:41:20;;;;;;;19.35;17.42;;;;;;;29.53;43.77;99182.91;4990487;28;20050;-78
2022/07/28 07:43:46;;;;;;;18.73;16.80;;;;;;;29.80;42.65;99190.53;4975762;28;20133;-78
2022/07/28 07:46:13;;;;;;;17.45;15.85;;;;;;;30.06;42.32;99189.00;4975555;28;20047;-78
2022/07/28 07:48:39;;;;;;;14.70;12.13;;;;;;;29.92;41.33;99196.78;4974822;28;20469;-78
2022/07/28 07:51:05;;;;;;;23.88;18.25;;;;;;;30.04;41.42;99193.91;4975731;28;20454;-78
2022/07/28 07:53:31;;;;;;;16.02;13.15;;;;;;;29.82;40.87;99185.59;4975595;28;20129;-77
2022/07/28 07:55:57;;;;;;;15.48;13.30;;;;;;;29.84;41.70;99186.19;4990703;28;20126;-77
2022/07/28 07:58:23;;;;;;;14.80;13.30;;;;;;;29.73;41.19;99194.28;4974382;28;20039;-76
2022/07/28 08:00:49;;;;;;;13.90;12.32;;;;;;;29.28;42.30;99184.16;4974480;28;20079;-77
2022/07/28 08:03:15;;;;;;;14.98;13.55;;;;;;;29.07;43.02;99186.78;4938579;29;20147;-77
2022/07/28 08:05:42;;;;;;;15.15;13.65;;;;;;;29.16;43.03;99177.88;4954766;29;20537;-80
2022/07/28 08:08:09;;;;;;;13.45;12.13;;;;;;;29.35;42.81;99180.41;4971028;28;20457;-79
2022/07/28 08:10:37;;;;;;;14.37;12.83;;;;;;;29.27;43.06;99171.47;4954691;29;20054;-78
2022/07/28 08:13:05;;;;;;;13.63;11.93;;;;;;;29.33;43.06;99177.06;4970764;28;20044;-77
2022/07/28 08:15:32;;;;;;;12.20;8.80;;;;;;;28.56;40.70;99179.19;4960749;28;20038;-78
2022/07/28 08:17:59;;;;;;;9.63;8.50;;;;;;;28.30;40.59;99177.78;4957625;28;20441;-78
2022/07/28 08:20:28;;;;;;;9.82;8.82;;;;;;;28.49;41.20;99183.16;4973644;28;20355;-80
2022/07/28 08:22:56;;;;;;;9.95;9.02;;;;;;;28.83;40.18;99177.78;4957960;28;20073;-77
2022/07/28 08:25:23;;;;;;;12.68;9.07;;;;;;;28.52;40.22;99168.91;4990037;28;20046;-76
2022/07/28 08:27:49;;;;;;;10.70;9.15;;;;;;;28.31;41.07;99170.38;4973794;28;20047;-79
2022/07/28 08:30:19;;;;;;;9.55;7.72;;;;;;;28.40;40.15;99168.97;4957496;28;20054;-76
2022/07/28 08:32:46;;;;;;;9.90;8.90;;;;;;;28.51;40.32;99161.72;4987948;28;20054;-77
2022/07/28 08:35:13;;;;;;;10.52;9.38;;;;;;;28.63;41.37;99162.53;4974708;28;20100;-79
2022/07/28 08:37:39;;;;;;;13.18;10.07;;;;;;;28.97;40.63;99146.13;4989848;28;20046;-78
2022/07/28 08:40:13;;;;;;;14.15;9.45;;;;;;;29.41;39.89;99151.84;4973590;28;20039;-78
2022/07/28 08:42:39;;;;;;;10.70;9.60;;;;;;;29.27;39.85;99149.44;4974517;28;20474;-78
2022/07/28 08:45:06;;;;;;;10.30;9.10;;;;;;;29.14;39.48;99146.16;4957528;28;20126;-80
2022/07/28 08:47:34;;;;;;;11.02;7.32;;;;;;;29.15;38.43;99147.84;4957437;28;20402;-80
2022/07/28 08:50:01;;;;;;;10.82;6.28;;;;;;;28.98;36.58;99147.81;4973066;28;20502;-81
2022/07/28 08:52:30;;;;;;;7.55;6.85;;;;;;;29.03;37.15;99139.66;4974012;28;20038;-80
2022/07/28 08:54:58;;;;;;;7.72;6.18;;;;;;;29.21;37.53;99147.69;4972903;28;20070;-79
2022/07/28 08:57:29;;;;;;;7.47;6.75;;;;;;;29.80;37.10;99149.22;4956999;28;20046;-79
2022/07/28 08:59:55;;;;;;;8.75;7.25;;;;;;;29.62;36.21;99145.63;4957199;28;20458;-81
2022/07/28 09:02:25;;;;;;;16.65;7.10;;;;;;;29.06;37.39;99141.06;4973335;28;20047;-80
2022/07/28 09:04:54;;;;;;;8.02;7.22;;;;;;;29.60;37.10;99133.19;4974867;28;20050;-79
2022/07/28 09:07:25;;;;;;;8.25;6.75;;;;;;;30.20;36.21;99137.91;4973119;28;20129;-80
2022/07/28 09:09:51;;;;;;;9.57;6.90;;;;;;;30.31;35.72;99128.69;4973474;28;20053;-82
2022/07/28 09:12:17;;;;;;;7.22;6.53;;;;;;;30.35;35.71;99131.78;4974022;28;20452;-83
2022/07/28 09:14:43;;;;;;;11.43;6.20;;;;;;;30.58;35.13;99138.94;4957234;28;20486;-83
2022/07/28 09:17:09;;;;;;;7.93;7.13;;;;;;;30.77;34.28;99125.66;4957001;28;20042;-81
2022/07/28 09:19:37;;;;;;;11.98;6.22;;;;;;;31.19;34.28;99140.44;4972744;28;20098;-84
2022/07/28 09:22:03;;;;;;;;;;;;;;;31.67;33.47;99135.88;4958030;28;20066;-92
2022/07/28 09:24:43;;;;;;;8.40;6.35;;;;;;;32.10;32.42;99131.19;4974622;28;19928;-84
2022/07/28 09:27:11;;;;;;;6.97;5.60;;;;;;;32.57;32.32;99116.47;4974234;28;20055;-81
2022/07/28 09:29:39;;;;;;;18.17;5.70;;;;;;;32.49;31.72;99114.22;4974186;28;20067;-82
2022/07/28 09:32:05;;;;;;;6.20;4.82;;;;;;;31.91;32.08;99139.09;4972803;28;20050;-81
2022/07/28 09:34:46;;;;;;;9.90;4.90;;;;;;;31.47;33.19;99130.19;4973909;28;20058;-81
2022/07/28 09:37:24;;;;;;;6.25;5.43;;;;;;;31.36;33.61;99136.72;4956886;28;20097;-81
2022/07/28 09:39:56;;;;;;;7.20;4.90;;;;;;;31.91;33.31;99135.50;4972932;28;20043;-80
2022/07/28 09:42:22;;;;;;;5.90;4.75;;;;;;;31.55;33.59;99149.03;4972159;28;20054;-79
2022/07/28 09:45:06;;;;;;;7.43;4.80;;;;;;;30.37;35.43;99143.38;4973676;28;20109;-80
2022/07/28 09:47:33;;;;;;;5.85;4.95;;;;;;;29.47;36.92;99135.16;4988897;28;20050;-79
2022/07/28 09:50:00;;;;;;;7.65;4.53;;;;;;;29.38;37.54;99133.94;4973604;28;20502;-79
2022/07/28 09:52:30;;;;;;;7.53;5.00;;;;;;;29.24;36.60;99127.09;4973719;28;20533;-81
2022/07/28 09:55:07;;;;;;;5.80;4.60;;;;;;;29.44;35.68;99129.31;4972680;28;20143;-81
2022/07/28 09:57:35;;;;;;;5.32;4.50;;;;;;;29.65;35.69;99125.84;4973083;28;20543;-82
2022/07/28 10:00:06;;;;;;;6.38;4.78;;;;;;;30.46;34.84;99130.81;4972486;28;20038;-82
2022/07/28 10:02:38;;;;;;;5.70;4.70;;;;;;;31.51;34.12;99117.50;4957887;28;20048;-82
2022/07/28 10:05:05;;;;;;;7.32;4.20;;;;;;;31.60;32.50;99134.44;4972940;28;20047;-80
2022/07/28 10:07:33;;;;;;;5.23;4.57;;;;;;;31.37;32.84;99122.69;4973306;28;20498;-81
2022/07/28 10:10:06;;;;;;;6.70;3.90;;;;;;;31.68;31.94;99109.91;4974502;28;20052;-82
2022/07/28 10:12:36;;;;;;;7.60;4.20;;;;;;;31.66;30.75;99123.13;4973980;28;20305;-80
2022/07/28 10:18:01;;;;;;;6.60;4.00;;;;;;;32.88;29.59;99111.81;4973462;28;20039;-81
2022/07/28 10:20:28;;;;;;;5.80;4.05;;;;;;;33.25;28.75;99108.00;4972866;28;20145;-81
2022/07/28 10:23:04;;;;;;;6.63;4.13;;;;;;;33.54;28.84;99113.00;4989105;28;20055;-81
2022/07/28 10:25:32;;;;;;;6.90;3.90;;;;;;;33.30;29.49;99118.25;4974317;28;20043;-81
2022/07/28 10:28:00;;;;;;;5.00;3.78;;;;;;;33.12;28.66;99131.53;4974962;28;20093;-81
2022/07/28 10:30:32;;;;;;;7.28;3.83;;;;;;;33.34;27.72;99130.44;4976876;28;20050;-81
2022/07/28 10:33:01;;;;;;;10.80;3.88;;;;;;;33.35;28.15;99127.38;4962441;28;20043;-81
2022/07/28 10:35:28;;;;;;;4.05;3.60;;;;;;;33.13;28.11;99107.44;4979644;28;20058;-81
2022/07/28 10:38:32;;;;;;;5.80;3.38;;;;;;;33.24;27.23;99116.59;4980593;28;20047;-82
2022/07/28 10:41:02;;;;;;;10.30;3.83;;;;;;;33.40;27.81;99111.84;4963324;28;20055;-82
2022/07/28 10:43:30;;;;;;;11.15;3.70;;;;;;;33.43;27.04;99112.13;4977146;28;20039;-82
2022/07/28 10:46:02;;;;;;;6.35;3.90;;;;;;;33.63;26.80;99124.34;4975820;28;20589;-81
2022/07/28 10:48:29;;;;;;;5.25;3.75;;;;;;;33.86;26.97;99118.22;4943938;28;20070;-82
2022/07/28 10:50:56;;;;;;;7.85;3.80;;;;;;;33.45;26.86;99121.00;4975881;28;20054;-82
2022/07/28 10:53:46;;;;;;;7.57;3.95;;;;;;;33.04;28.52;99128.50;4977456;28;20058;-81
2022/07/28 10:56:21;;;;;;;5.07;4.30;;;;;;;34.04;28.67;99128.72;4977209;28;20125;-81
2022/07/28 10:58:46;;;;;;;10.98;4.85;;;;;;;34.73;28.04;99131.78;4977832;28;20059;-81
2022/07/28 11:01:33;;;;;;;9.68;5.47;;;;;;;35.26;27.06;99130.03;4976780;28;20046;-82
2022/07/28 11:03:59;;;;;;;9.00;4.75;;;;;;;34.43;27.76;99130.78;4975626;28;20049;-83
2022/07/28 11:06:35;;;;;;;9.98;4.68;;;;;;;33.32;29.58;99132.66;4992603;28;20046;-82
2022/07/28 11:09:16;;;;;;;8.85;5.32;;;;;;;33.00;29.75;99124.59;4976096;28;20146;-82
2022/07/28 11:11:51;;;;;;;8.93;4.78;;;;;;;33.72;28.44;99128.22;4975463;28;20129;-82
2022/07/28 11:14:28;;;;;;;9.45;4.88;;;;;;;34.37;27.66;99129.16;4976769;28;20074;-85
2022/07/28 11:17:00;;;;;;;5.20;4.70;;;;;;;35.02;26.58;99124.41;4924853;29;20379;-83
2022/07/28 11:19:28;;;;;;;5.10;4.53;;;;;;;35.43;26.00;99121.31;4972174;28;20039;-83
2022/07/28 11:22:17;;;;;;;5.43;4.63;;;;;;;35.43;25.78;99120.44;4972179;28;20134;-81
2022/07/28 11:25:01;;;;;;;6.03;4.50;;;;;;;35.36;26.11;99120.81;4939883;29;20537;-82
2022/07/28 11:27:39;;;;;;;7.53;5.07;;;;;;;34.98;26.13;99119.66;4924186;29;20054;-82
2022/07/28 11:30:10;;;;;;;9.07;4.35;;;;;;;34.21;27.41;99117.28;4955694;28;20051;-82
2022/07/28 11:32:54;;;;;;;9.98;4.65;;;;;;;32.68;30.16;99133.91;4955503;29;20067;-81
2022/07/28 11:35:21;;;;;;;10.27;4.68;;;;;;;31.75;31.79;99133.72;4957913;28;20047;-82
2022/07/28 11:37:59;;;;;;;14.00;4.70;;;;;;;31.40;33.00;99137.88;4958117;28;20047;-81